Prudenville, MI

12:29 AM EDT on August 01, 2015 (GMT -0400)
Roscommon County | | Change Station
CLOSE
Current Station
Airport
Location: Houghton Lake,
Elevation: 1152 ft
Nearby Weather Stations

Elev 1152 ft 44.36 °N, 84.67 °W | Updated 36 minutes ago

Clear
Clear
62 °F
Feels Like 62 °F
N
5
Wind Variable Wind from WNW

Today
High -- | Low -- °F
--% Chance of Precip.
Yesterday
High -- | Low -- °F
Precip. -- in
6:25 AM 9:03 PM
Full, 99% visible
Pressure 29.89 in
Visibility 10.0 miles
Clouds Clear
Dew Point 57 °F
Humidity 84%
Rainfall 0.07 in
Snow Depth Not available.
UV 0 out of 12
Pollen 7.30 out of 12
Air Quality Not available.
Flu Activity Not available.
METAR KHTL 010353Z AUTO 30004KT 10SM CLR 17/14 A2990 RMK AO2 SLP121 T01670139

More Conditions Fewer Conditions

Pressure 29.89 in
Visibility 10.0 miles
Clouds Clear
Dew Point 57 °F
Humidity 84%
Rainfall 0.07 in
Snow Depth Not available.
UV 0 out of 12
Pollen 7.30 out of 12
Air Quality Not available.
Flu Activity Not available.
METAR KHTL 010353Z AUTO 30004KT 10SM CLR 17/14 A2990 RMK AO2 SLP121 T01670139

More Conditions Fewer Conditions

Nowcast | as of 12:00 am EDT on August 1, 2015

At 1 am...mostly clear. Temperature 61. Light winds. At 3 am...mostly clear. Temperature 58. Light winds. At 5 am...mostly clear. Temperature 58. West winds 5 mph. At 7 am...mostly clear. Temperature 59. West winds 6 mph.

×

10-Day Weather Forecast

×

Almanac

Astronomy

Aug. 01, 2015 Rise Set
Actual Time
Civil Twilight
Nautical Twilight
Astronomical Twilight
Moon
Length of Visible Light
Length of Day
Tomorrow will be .
, % of the Moon is Illuminated

Today's Extremes

State Highs State Lows

Community

WunderPhotos

Upload Photos

1,842,874 photos uploaded!

WunderBlogs® & News

Nearby

Air Quality

  Air Quality AQ Index Pollutant
Not available.

Snow Depth

Station Depth Elevation

Earthquake Activity

City Distance Mag. Time & Date
Minimum magnitude displayed is 2.5.

Coastal Water Temperatures

Place Temperature

Stations

Nearby Weather Stations

Station Location Temp. Windchill Dew Point Humidity Wind Precip. Elev Updated Type